Terminal Aerodrome Forecast
Issued by NWS

Current Version | Previous Version | Graphics & Text | Print | Product List | Glossary On
Versions: 1 2 3 4 5 6 7 8 9 10 11 12 13 14 15 16 17 18 19 20 21 22 23
000
FTUS41 KRNK 200539 AAA
TAFLWB
TAF AMD
KLWB 200539Z 2006/2106 00000KT P6SM BKN120
     FM200800 00000KT 2SM BR BKN008
     FM200900 00000KT 1/4SM FG BKN002
     FM201400 VRB03KT P6SM SCT070
     FM201600 28004KT P6SM VCSH BKN070=

USA.gov is the U.S. government's official web portal to all federal, state and local government web resources and services.